Time;durP1;ratioP1;P1;durP2;ratioP2;P2;SDS_P1;SDS_P2;PMS_P1;PMS_P2;Temp;Humidity;BMP_temperature;BMP_pressure;BME280_temperature;BME280_humidity;BME280_pressure;Samples;Min_cycle;Max_cycle;Signal;HPM_P1;HPM_P2
2023/07/30 00:01:19;;;;;;;1.60;1.50;;;20.70;82.80;;;;;;4939088;28;20039;-63
2023/07/30 00:03:45;;;;;;;2.55;1.70;;;20.60;82.70;;;;;;4940358;28;20070;-61
2023/07/30 00:06:10;;;;;;;1.50;1.40;;;20.70;82.70;;;;;;4939897;28;20043;-63
2023/07/30 00:08:36;;;;;;;2.85;1.40;;;20.70;82.70;;;;;;4939479;28;20118;-62
2023/07/30 00:11:02;;;;;;;1.60;1.50;;;20.70;82.80;;;;;;4944403;28;20538;-63
2023/07/30 00:13:27;;;;;;;2.17;1.63;;;20.70;82.90;;;;;;4938775;28;20122;-62
2023/07/30 00:15:53;;;;;;;1.55;1.45;;;20.70;82.90;;;;;;4938994;28;20031;-62
2023/07/30 00:18:19;;;;;;;1.50;1.40;;;20.70;83.80;;;;;;4939409;28;20059;-62
2023/07/30 00:20:44;;;;;;;1.85;1.70;;;20.70;83.10;;;;;;4940212;28;20484;-63
2023/07/30 00:23:10;;;;;;;2.10;1.42;;;20.60;83.00;;;;;;4938665;28;20052;-62
2023/07/30 00:25:35;;;;;;;1.65;1.48;;;20.60;83.10;;;;;;4936661;28;20024;-62
2023/07/30 00:28:01;;;;;;;1.70;1.60;;;20.60;83.20;;;;;;4939518;28;20477;-62
2023/07/30 00:30:26;;;;;;;1.50;1.40;;;20.60;84.10;;;;;;4938744;28;20039;-63
2023/07/30 00:32:52;;;;;;;1.60;1.50;;;20.60;83.30;;;;;;4940164;28;20419;-62
2023/07/30 00:35:18;;;;;;;1.70;1.60;;;20.60;83.30;;;;;;4939113;28;20036;-62
2023/07/30 00:37:43;;;;;;;1.60;1.50;;;20.60;83.30;;;;;;4938099;28;20090;-63
2023/07/30 00:40:10;;;;;;;1.85;1.75;;;20.60;83.30;;;;;;4937931;28;21417;-63
2023/07/30 00:42:35;;;;;;;1.60;1.50;;;20.60;83.20;;;;;;4939546;28;20168;-62
2023/07/30 00:45:01;;;;;;;2.40;1.63;;;20.60;83.20;;;;;;4939632;28;20395;-63
2023/07/30 00:47:27;;;;;;;1.70;1.60;;;20.60;83.30;;;;;;4939714;28;20051;-63
2023/07/30 00:49:53;;;;;;;1.83;1.60;;;20.60;83.30;;;;;;4938686;28;20042;-63
2023/07/30 00:52:21;;;;;;;1.95;1.63;;;20.60;83.20;;;;;;4938577;28;20039;-63
2023/07/30 00:54:51;;;;;;;1.70;1.60;;;20.50;83.20;;;;;;4938942;28;20035;-63
2023/07/30 00:57:18;;;;;;;4.43;1.75;;;20.50;83.30;;;;;;4936169;28;20094;-62
2023/07/30 00:59:45;;;;;;;1.60;1.50;;;20.50;84.10;;;;;;4938627;28;20035;-62
2023/07/30 01:02:11;;;;;;;1.98;1.50;;;20.40;83.30;;;;;;4943530;28;20571;-62
2023/07/30 01:04:39;;;;;;;1.70;1.60;;;20.40;83.30;;;;;;4939675;28;20043;-62
2023/07/30 01:07:05;;;;;;;1.83;1.65;;;20.40;83.40;;;;;;4939956;28;20538;-62
2023/07/30 01:09:31;;;;;;;1.63;1.50;;;20.40;83.40;;;;;;4938884;28;20051;-63
2023/07/30 01:11:58;;;;;;;1.73;1.63;;;20.40;83.80;;;;;;4942933;28;20050;-63
2023/07/30 01:14:26;;;;;;;1.70;1.58;;;20.30;83.70;;;;;;4940415;28;20039;-63
2023/07/30 01:16:52;;;;;;;2.22;1.88;;;20.30;83.80;;;;;;4939842;28;20598;-63
2023/07/30 01:19:18;;;;;;;1.52;1.42;;;20.30;83.80;;;;;;4938135;28;20049;-62
2023/07/30 01:21:43;;;;;;;1.90;1.55;;;20.30;83.80;;;;;;4937086;28;21553;-63
2023/07/30 01:24:09;;;;;;;1.67;1.58;;;20.30;83.80;;;;;;4938048;28;20542;-63
2023/07/30 01:26:43;;;;;;;1.95;1.75;;;20.30;83.90;;;;;;4934614;28;20031;-63
2023/07/30 01:29:15;;;;;;;2.13;1.85;;;20.30;84.10;;;;;;4937333;28;20651;-62
2023/07/30 01:31:41;;;;;;;2.03;1.83;;;20.30;84.00;;;;;;4935921;28;20050;-61
2023/07/30 01:34:09;;;;;;;1.75;1.65;;;20.20;83.90;;;;;;4937970;28;20283;-63
2023/07/30 01:36:36;;;;;;;2.03;1.85;;;20.20;84.10;;;;;;4935421;28;20044;-62
2023/07/30 01:39:02;;;;;;;2.05;1.90;;;20.20;84.10;;;;;;4935919;28;20429;-62
2023/07/30 01:41:27;;;;;;;1.92;1.83;;;20.20;84.10;;;;;;4934765;28;20126;-62
2023/07/30 01:43:54;;;;;;;2.03;1.75;;;20.20;84.30;;;;;;4935990;28;20040;-62
2023/07/30 01:46:19;;;;;;;2.17;2.00;;;20.10;84.40;;;;;;4936422;28;20069;-61
2023/07/30 01:48:45;;;;;;;2.35;2.15;;;20.20;84.50;;;;;;4935385;28;20061;-63
2023/07/30 01:51:10;;;;;;;2.20;2.00;;;20.10;84.50;;;;;;4936916;28;20047;-62
2023/07/30 01:53:36;;;;;;;2.33;2.13;;;20.10;84.50;;;;;;4937070;28;20097;-63
2023/07/30 01:56:01;;;;;;;2.42;1.90;;;20.10;84.60;;;;;;4935535;28;20074;-62
2023/07/30 01:58:27;;;;;;;3.78;2.50;;;20.10;84.60;;;;;;4937233;28;20437;-61
2023/07/30 02:00:52;;;;;;;2.20;2.00;;;20.10;84.60;;;;;;4936162;28;20036;-62
2023/07/30 02:03:18;;;;;;;2.20;1.90;;;20.10;84.60;;;;;;4936297;28;20047;-62
2023/07/30 02:05:44;;;;;;;1.85;1.75;;;20.10;84.70;;;;;;4937437;28;20039;-61
2023/07/30 02:08:10;;;;;;;1.75;1.65;;;20.10;84.80;;;;;;4937484;28;20036;-62
2023/07/30 02:10:35;;;;;;;2.22;1.85;;;20.10;84.80;;;;;;4935464;28;20044;-62
2023/07/30 02:13:01;;;;;;;3.03;2.00;;;20.10;84.80;;;;;;4934346;28;20054;-63
2023/07/30 02:15:26;;;;;;;2.35;2.15;;;20.00;84.80;;;;;;4934765;28;20563;-62
2023/07/30 02:17:52;;;;;;;2.17;2.03;;;20.10;84.80;;;;;;4936414;28;20036;-63
2023/07/30 02:20:17;;;;;;;2.08;1.88;;;20.20;84.90;;;;;;4938847;28;20400;-63
2023/07/30 02:22:43;;;;;;;2.67;1.90;;;20.10;84.80;;;;;;4935943;28;20038;-62
2023/07/30 02:25:09;;;;;;;2.22;1.88;;;20.20;84.70;;;;;;4936788;28;20041;-63
2023/07/30 02:27:34;;;;;;;1.60;1.50;;;20.20;84.70;;;;;;4934761;28;20050;-63
2023/07/30 02:30:00;;;;;;;1.83;1.73;;;20.20;84.60;;;;;;4935937;28;20031;-63
2023/07/30 02:32:25;;;;;;;2.63;1.75;;;20.20;84.50;;;;;;4936323;28;20207;-63
2023/07/30 02:34:51;;;;;;;2.55;1.75;;;20.20;84.40;;;;;;4937223;28;20402;-62
2023/07/30 02:37:16;;;;;;;3.05;1.75;;;20.20;84.40;;;;;;4935828;28;20044;-62
2023/07/30 02:39:42;;;;;;;2.15;1.42;;;20.20;84.30;;;;;;4936074;28;20039;-63
2023/07/30 02:42:07;;;;;;;1.55;1.45;;;20.20;84.30;;;;;;4935322;28;20122;-63
2023/07/30 02:44:33;;;;;;;3.15;1.70;;;20.20;84.20;;;;;;4935579;28;20043;-62
2023/07/30 02:46:59;;;;;;;2.05;1.85;;;20.20;84.10;;;;;;4935773;28;20357;-63
2023/07/30 02:49:24;;;;;;;1.70;1.60;;;20.20;84.00;;;;;;4934420;28;20129;-63
2023/07/30 02:51:50;;;;;;;1.80;1.70;;;20.20;83.90;;;;;;4937825;29;20047;-62
2023/07/30 02:54:20;;;;;;;2.05;1.85;;;20.20;84.80;;;;;;4939015;28;20210;-62
2023/07/30 02:56:46;;;;;;;2.47;1.80;;;20.20;84.70;;;;;;4939366;28;20376;-63
2023/07/30 02:59:12;;;;;;;1.70;1.60;;;20.20;83.90;;;;;;4938034;28;20041;-63
2023/07/30 03:01:37;;;;;;;1.70;1.60;;;20.10;83.80;;;;;;4939084;28;20065;-63
2023/07/30 03:04:04;;;;;;;1.70;1.60;;;20.10;83.90;;;;;;4944294;28;20066;-63
2023/07/30 03:06:30;;;;;;;1.85;1.75;;;20.10;84.00;;;;;;4943174;28;20055;-63
2023/07/30 03:08:55;;;;;;;2.50;1.65;;;20.10;84.00;;;;;;4943539;28;20492;-62
2023/07/30 03:11:22;;;;;;;1.77;1.58;;;20.00;84.00;;;;;;4944796;28;20389;-63
2023/07/30 03:13:48;;;;;;;1.80;1.70;;;20.00;84.00;;;;;;4941850;29;20123;-62
2023/07/30 03:16:14;;;;;;;1.90;1.80;;;20.00;84.10;;;;;;4939915;28;20051;-62
2023/07/30 03:18:39;;;;;;;1.70;1.60;;;19.90;84.10;;;;;;4939618;28;20043;-62
2023/07/30 03:21:05;;;;;;;2.38;1.85;;;20.00;84.30;;;;;;4941174;28;20041;-63
2023/07/30 03:23:31;;;;;;;1.90;1.80;;;19.90;84.20;;;;;;4937330;28;20091;-63
2023/07/30 03:25:57;;;;;;;1.67;1.58;;;19.90;84.20;;;;;;4938285;28;20268;-63
2023/07/30 03:28:23;;;;;;;2.75;1.70;;;19.90;84.30;;;;;;4942652;28;20082;-63
2023/07/30 03:30:49;;;;;;;2.67;2.33;;;19.90;84.40;;;;;;4938160;28;20438;-63
2023/07/30 03:33:14;;;;;;;1.75;1.50;;;19.80;84.50;;;;;;4939880;28;20606;-63
2023/07/30 03:35:40;;;;;;;2.47;2.03;;;19.90;84.50;;;;;;4941433;28;20464;-63
2023/07/30 03:38:06;;;;;;;2.08;1.98;;;19.80;85.30;;;;;;4940055;28;20027;-61
2023/07/30 03:40:31;;;;;;;2.75;1.77;;;19.80;84.50;;;;;;4940103;28;20526;-63
2023/07/30 03:42:57;;;;;;;2.25;1.70;;;19.80;84.50;;;;;;4940447;28;20035;-63
2023/07/30 03:45:22;;;;;;;2.40;1.83;;;19.80;84.50;;;;;;4938512;28;21498;-63
2023/07/30 03:47:48;;;;;;;2.33;1.80;;;19.70;84.50;;;;;;4941666;28;20050;-63
2023/07/30 03:50:13;;;;;;;2.28;1.88;;;19.70;84.60;;;;;;4939499;29;20521;-62
2023/07/30 03:52:39;;;;;;;1.70;1.60;;;19.70;84.60;;;;;;4939939;28;20036;-62
2023/07/30 03:55:05;;;;;;;2.28;1.80;;;19.60;84.60;;;;;;4939870;28;20399;-62
2023/07/30 03:57:31;;;;;;;2.50;1.65;;;19.60;84.70;;;;;;4938836;28;20043;-63
2023/07/30 03:59:56;;;;;;;2.53;2.03;;;19.60;84.80;;;;;;4937948;28;20031;-63
2023/07/30 04:02:22;;;;;;;2.55;2.05;;;19.60;84.80;;;;;;4940065;28;20130;-62
2023/07/30 04:04:49;;;;;;;2.13;1.92;;;19.50;85.00;;;;;;4937988;28;20051;-63
2023/07/30 04:07:15;;;;;;;2.40;2.15;;;19.50;85.10;;;;;;4939269;28;20035;-61
2023/07/30 04:09:40;;;;;;;2.00;1.90;;;19.50;85.30;;;;;;4938951;28;20039;-63
2023/07/30 04:12:06;;;;;;;2.25;2.00;;;19.50;85.30;;;;;;4941378;28;20039;-63
2023/07/30 04:14:32;;;;;;;2.97;2.10;;;19.40;85.30;;;;;;4939611;28;20062;-63
2023/07/30 04:16:58;;;;;;;2.08;1.90;;;19.50;85.30;;;;;;4940513;28;20042;-61
2023/07/30 04:19:23;;;;;;;6.63;2.15;;;19.40;85.30;;;;;;4940374;28;20499;-63
2023/07/30 04:21:49;;;;;;;4.75;2.03;;;19.50;86.40;;;;;;4937521;29;20042;-63
2023/07/30 04:24:14;;;;;;;2.63;1.85;;;19.50;85.50;;;;;;4941071;28;20074;-62
2023/07/30 04:26:40;;;;;;;1.83;1.70;;;19.40;85.50;;;;;;4939300;28;20047;-64
2023/07/30 04:29:05;;;;;;;1.77;1.67;;;19.50;85.50;;;;;;4938649;28;20046;-62
2023/07/30 04:31:32;;;;;;;2.63;2.20;;;19.50;86.40;;;;;;4938477;28;20556;-63
2023/07/30 04:33:58;;;;;;;2.67;1.90;;;19.50;85.60;;;;;;4939259;28;20043;-62
2023/07/30 04:36:23;;;;;;;2.38;1.88;;;19.50;85.70;;;;;;4939051;28;20043;-62
2023/07/30 04:38:49;;;;;;;2.30;2.08;;;19.40;85.70;;;;;;4938029;28;20067;-63
2023/07/30 04:41:15;;;;;;;3.05;2.10;;;19.50;85.90;;;;;;4938312;28;20102;-62
2023/07/30 04:43:40;;;;;;;1.98;1.80;;;19.40;85.90;;;;;;4940909;28;20206;-63
2023/07/30 04:46:06;;;;;;;2.22;1.90;;;19.40;86.10;;;;;;4938513;28;20123;-63
2023/07/30 04:48:31;;;;;;;2.38;2.10;;;19.40;86.20;;;;;;4937482;28;20423;-62
2023/07/30 04:50:57;;;;;;;2.22;1.80;;;19.40;86.40;;;;;;4937939;28;20189;-63
2023/07/30 04:53:23;;;;;;;4.07;2.40;;;19.30;86.40;;;;;;4938079;28;20063;-62
2023/07/30 04:55:48;;;;;;;2.28;2.08;;;19.40;86.70;;;;;;4939771;28;20061;-63
2023/07/30 04:58:14;;;;;;;3.45;2.10;;;19.30;86.80;;;;;;4938976;28;20047;-63
2023/07/30 05:00:39;;;;;;;3.45;2.35;;;19.40;86.90;;;;;;4938159;28;20039;-62
2023/07/30 05:03:05;;;;;;;2.47;2.28;;;19.40;87.00;;;;;;4939904;28;20027;-62
2023/07/30 05:05:30;;;;;;;3.15;2.05;;;19.40;87.30;;;;;;4939966;28;20035;-62
2023/07/30 05:07:56;;;;;;;2.20;2.00;;;19.40;87.30;;;;;;4939708;28;20511;-62
2023/07/30 05:10:22;;;;;;;2.92;1.88;;;19.40;87.40;;;;;;4941188;28;20348;-63
2023/07/30 05:12:47;;;;;;;2.20;2.00;;;19.40;87.40;;;;;;4939745;28;20199;-63
2023/07/30 05:15:13;;;;;;;4.78;2.15;;;19.40;87.50;;;;;;4938407;28;20046;-63
2023/07/30 05:17:38;;;;;;;2.13;1.90;;;19.40;87.60;;;;;;4937404;28;20619;-63
2023/07/30 05:20:05;;;;;;;3.30;2.10;;;19.50;87.60;;;;;;4936967;28;20039;-63
2023/07/30 05:22:30;;;;;;;2.30;1.90;;;19.50;87.70;;;;;;4937967;28;20043;-61
2023/07/30 05:24:56;;;;;;;2.85;1.83;;;19.50;87.80;;;;;;4926030;28;20082;-63
2023/07/30 05:27:22;;;;;;;1.70;1.60;;;19.60;87.80;;;;;;4937960;28;20135;-62
2023/07/30 05:29:48;;;;;;;2.78;1.92;;;19.60;87.80;;;;;;4938672;28;20058;-61
2023/07/30 05:32:13;;;;;;;1.85;1.75;;;19.60;87.70;;;;;;4936797;28;20071;-62
2023/07/30 05:34:39;;;;;;;2.00;1.80;;;19.70;87.60;;;;;;4938137;28;20040;-63
2023/07/30 05:37:05;;;;;;;2.22;1.60;;;19.70;87.70;;;;;;4936943;28;20027;-60
2023/07/30 05:39:30;;;;;;;2.08;1.77;;;19.70;87.80;;;;;;4937461;28;20118;-62
2023/07/30 05:41:56;;;;;;;1.75;1.65;;;19.80;87.80;;;;;;4937781;28;20035;-63
2023/07/30 05:44:21;;;;;;;2.15;1.90;;;19.90;87.80;;;;;;4936532;28;20815;-61
2023/07/30 05:46:47;;;;;;;1.65;1.50;;;19.90;87.70;;;;;;4936217;28;20094;-62
2023/07/30 05:49:14;;;;;;;1.75;1.63;;;19.90;87.60;;;;;;4937933;28;20051;-63
2023/07/30 05:51:40;;;;;;;2.42;1.65;;;20.00;87.60;;;;;;4936468;28;20044;-63
2023/07/30 05:54:05;;;;;;;1.77;1.67;;;20.00;87.60;;;;;;4937929;28;20141;-63
2023/07/30 05:56:31;;;;;;;2.13;1.70;;;20.10;87.70;;;;;;4937836;28;20031;-63
2023/07/30 05:58:57;;;;;;;1.85;1.60;;;20.20;87.40;;;;;;4934837;28;20047;-61
2023/07/30 06:01:22;;;;;;;1.70;1.60;;;20.20;87.30;;;;;;4936827;28;20035;-63
2023/07/30 06:03:48;;;;;;;1.65;1.55;;;20.30;87.10;;;;;;4937187;28;20035;-63
2023/07/30 06:06:14;;;;;;;1.70;1.60;;;20.30;86.80;;;;;;4937721;28;20106;-62
2023/07/30 06:08:40;;;;;;;2.28;1.75;;;20.40;86.60;;;;;;4935971;28;21006;-63
2023/07/30 06:11:05;;;;;;;1.92;1.70;;;20.40;86.60;;;;;;4938366;28;20085;-63
2023/07/30 06:13:31;;;;;;;3.65;1.58;;;20.50;86.60;;;;;;4935499;28;20086;-63
2023/07/30 06:15:56;;;;;;;1.42;1.33;;;20.60;86.50;;;;;;4937347;28;20078;-63
2023/07/30 06:18:22;;;;;;;2.03;1.40;;;20.60;86.40;;;;;;4940239;28;20067;-62
2023/07/30 06:20:48;;;;;;;1.70;1.60;;;20.70;86.20;;;;;;4938568;28;20462;-62
2023/07/30 06:23:13;;;;;;;1.50;1.40;;;20.80;86.10;;;;;;4940112;28;20490;-63
2023/07/30 06:25:39;;;;;;;1.38;1.27;;;20.90;85.90;;;;;;4938215;28;20495;-62
2023/07/30 06:28:05;;;;;;;1.60;1.50;;;20.90;85.70;;;;;;4939108;28;20086;-62
2023/07/30 06:30:32;;;;;;;1.45;1.35;;;21.00;85.30;;;;;;4937802;28;20035;-63
2023/07/30 06:32:58;;;;;;;1.30;1.20;;;21.10;85.10;;;;;;4936741;28;20039;-62
2023/07/30 06:35:23;;;;;;;1.70;1.60;;;21.20;84.90;;;;;;4939532;28;20046;-61
2023/07/30 06:37:50;;;;;;;1.42;1.33;;;21.30;84.60;;;;;;4938644;28;20567;-63
2023/07/30 06:40:16;;;;;;;1.55;1.23;;;21.30;84.20;;;;;;4938837;28;20045;-62
2023/07/30 06:42:42;;;;;;;2.22;1.30;;;21.40;84.10;;;;;;4936796;28;20023;-63
2023/07/30 06:45:08;;;;;;;2.75;1.30;;;21.40;83.80;;;;;;4920025;28;20063;-63
2023/07/30 06:47:33;;;;;;;1.77;1.50;;;21.50;83.40;;;;;;4924811;28;20039;-63
2023/07/30 06:49:59;;;;;;;1.65;1.40;;;21.50;83.30;;;;;;4929966;28;20049;-64
2023/07/30 06:52:25;;;;;;;2.15;1.50;;;21.60;83.10;;;;;;4931704;28;20130;-63
2023/07/30 06:54:50;;;;;;;1.40;1.23;;;21.60;82.80;;;;;;4930084;28;20035;-62
2023/07/30 06:57:16;;;;;;;1.20;1.10;;;21.70;82.60;;;;;;4931750;28;20043;-62
2023/07/30 06:59:41;;;;;;;1.63;1.52;;;21.70;82.40;;;;;;4931476;28;20071;-63
2023/07/30 07:02:07;;;;;;;1.90;1.65;;;21.80;82.30;;;;;;4934533;28;20090;-61
2023/07/30 07:04:33;;;;;;;1.42;1.33;;;21.80;82.00;;;;;;4937209;28;20051;-63
2023/07/30 07:06:58;;;;;;;1.40;1.30;;;21.80;82.20;;;;;;4937447;28;20031;-63
2023/07/30 07:09:24;;;;;;;1.58;1.48;;;21.90;82.10;;;;;;4933693;28;20046;-62
2023/07/30 07:11:49;;;;;;;1.85;1.40;;;21.90;81.80;;;;;;4935041;28;20118;-63
2023/07/30 07:14:15;;;;;;;1.10;1.10;;;22.00;80.90;;;;;;4931060;28;20051;-61
2023/07/30 07:16:41;;;;;;;1.30;1.20;;;22.00;80.60;;;;;;4934163;28;20032;-62
2023/07/30 07:19:06;;;;;;;1.25;1.15;;;22.10;80.10;;;;;;4934808;28;20035;-63
2023/07/30 07:21:32;;;;;;;1.65;1.40;;;22.10;79.80;;;;;;4915962;29;20039;-61
2023/07/30 07:23:57;;;;;;;1.27;1.17;;;22.10;79.70;;;;;;4935495;28;20173;-62
2023/07/30 07:26:23;;;;;;;2.22;1.25;;;22.20;79.80;;;;;;4934913;28;20035;-63
2023/07/30 07:28:48;;;;;;;2.15;1.33;;;22.20;79.80;;;;;;4935768;28;20039;-63
2023/07/30 07:31:14;;;;;;;1.35;1.25;;;22.30;79.60;;;;;;4933837;28;20052;-62
2023/07/30 07:33:40;;;;;;;1.23;1.13;;;22.30;79.50;;;;;;4933631;28;20050;-63
2023/07/30 07:36:07;;;;;;;1.65;1.30;;;22.40;79.20;;;;;;4930375;28;20418;-65
2023/07/30 07:38:33;;;;;;;1.30;1.20;;;22.40;78.60;;;;;;4928583;28;20074;-63
2023/07/30 07:41:02;;;;;;;1.45;1.30;;;22.40;78.60;;;;;;4935093;28;20541;-63
2023/07/30 07:43:28;;;;;;;1.30;1.20;;;22.50;79.60;;;;;;4931617;28;20044;-63
2023/07/30 07:45:53;;;;;;;1.20;1.10;;;22.50;78.50;;;;;;4940231;28;20045;-63
2023/07/30 07:48:19;;;;;;;1.05;1.00;;;22.60;78.30;;;;;;4939591;28;20035;-60
2023/07/30 07:50:45;;;;;;;1.02;1.02;;;22.70;77.30;;;;;;4927959;28;20538;-63
2023/07/30 07:53:11;;;;;;;1.38;1.27;;;22.70;77.00;;;;;;4942825;28;20042;-62
2023/07/30 07:55:37;;;;;;;1.35;1.25;;;22.80;76.50;;;;;;4938326;28;20035;-63
2023/07/30 07:58:02;;;;;;;1.25;1.15;;;22.80;76.60;;;;;;4935340;28;20054;-63
2023/07/30 08:00:28;;;;;;;1.25;1.13;;;22.90;76.50;;;;;;4940794;28;20510;-63
2023/07/30 08:02:53;;;;;;;1.35;1.00;;;22.90;76.30;;;;;;4933883;28;20039;-62
2023/07/30 08:05:24;;;;;;;1.30;1.02;;;23.00;76.70;;;;;;4936444;28;20028;-62
2023/07/30 08:07:50;;;;;;;1.10;1.10;;;23.00;76.10;;;;;;4942906;28;20452;-63
2023/07/30 08:10:16;;;;;;;1.17;1.08;;;23.10;75.20;;;;;;4944966;28;20130;-64
2023/07/30 08:12:42;;;;;;;1.08;1.08;;;23.20;74.90;;;;;;4944578;28;20126;-63
2023/07/30 08:15:08;;;;;;;0.85;0.85;;;23.20;74.70;;;;;;4941751;28;20081;-64
2023/07/30 08:17:33;;;;;;;1.30;1.02;;;23.30;74.70;;;;;;4942506;28;20118;-63
2023/07/30 08:19:59;;;;;;;1.30;1.20;;;23.30;74.60;;;;;;4942386;28;20039;-63
2023/07/30 08:22:24;;;;;;;2.05;0.90;;;23.40;74.70;;;;;;4940955;28;20279;-63
2023/07/30 08:24:50;;;;;;;1.48;1.10;;;23.40;74.10;;;;;;4937883;28;21036;-63
2023/07/30 08:27:16;;;;;;;2.03;1.20;;;23.50;74.20;;;;;;4938017;28;20043;-63
2023/07/30 08:29:41;;;;;;;2.22;1.00;;;23.60;73.60;;;;;;4941006;28;20653;-63
2023/07/30 08:32:07;;;;;;;1.00;1.00;;;23.60;73.00;;;;;;4939294;28;20043;-63
2023/07/30 08:34:33;;;;;;;1.08;1.00;;;23.60;72.50;;;;;;4940839;28;20514;-63
2023/07/30 08:36:58;;;;;;;1.15;0.90;;;23.70;71.80;;;;;;4938704;28;20027;-63
2023/07/30 08:39:24;;;;;;;1.50;1.08;;;23.80;71.30;;;;;;4938459;28;20071;-63
2023/07/30 08:41:49;;;;;;;1.38;1.10;;;23.80;71.10;;;;;;4922582;29;20264;-62
2023/07/30 08:44:15;;;;;;;1.10;1.00;;;23.80;70.20;;;;;;4938911;28;20079;-63
2023/07/30 08:46:41;;;;;;;0.90;0.90;;;23.80;70.20;;;;;;4939508;28;20435;-63
2023/07/30 08:49:06;;;;;;;1.10;1.10;;;23.90;70.60;;;;;;4941398;28;20047;-63
2023/07/30 08:51:36;;;;;;;1.08;1.05;;;23.90;70.70;;;;;;4940555;28;20508;-63
2023/07/30 08:54:02;;;;;;;0.90;0.90;;;24.00;70.10;;;;;;4938955;28;20047;-63
2023/07/30 08:56:28;;;;;;;2.22;1.05;;;24.00;69.90;;;;;;4941115;28;20538;-62
2023/07/30 08:58:57;;;;;;;0.90;0.90;;;24.10;69.50;;;;;;4939548;28;20040;-62
2023/07/30 09:01:29;;;;;;;1.40;1.30;;;24.10;69.60;;;;;;4936947;28;20035;-64
2023/07/30 09:03:56;;;;;;;1.38;1.02;;;24.20;69.20;;;;;;4938486;28;20139;-63
2023/07/30 09:06:22;;;;;;;1.10;1.00;;;24.20;68.90;;;;;;4939192;28;20590;-63
2023/07/30 09:08:48;;;;;;;1.02;1.00;;;24.30;68.20;;;;;;4938304;28;20043;-63
2023/07/30 09:11:13;;;;;;;1.55;1.05;;;24.30;67.90;;;;;;4940154;28;20246;-63
2023/07/30 09:13:41;;;;;;;1.30;1.25;;;24.40;67.80;;;;;;4937567;28;20412;-63
2023/07/30 09:16:14;;;;;;;1.13;1.00;;;24.40;66.90;;;;;;4932471;28;20086;-64
2023/07/30 09:18:45;;;;;;;2.53;0.90;;;24.40;65.00;;;;;;4935516;28;20031;-63
2023/07/30 09:21:12;;;;;;;1.20;1.10;;;24.40;66.00;;;;;;4940785;28;20039;-62
2023/07/30 09:23:42;;;;;;;1.00;0.90;;;24.40;66.40;;;;;;4940958;28;20039;-63
2023/07/30 09:26:08;;;;;;;0.82;0.82;;;24.50;65.70;;;;;;4940901;28;20587;-63
2023/07/30 09:28:34;;;;;;;0.82;0.82;;;24.50;66.20;;;;;;4940641;28;20521;-63
2023/07/30 09:31:01;;;;;;;1.90;0.90;;;24.60;66.00;;;;;;4941622;28;20042;-62
2023/07/30 09:33:27;;;;;;;1.25;1.15;;;24.60;64.50;;;;;;4940380;28;20039;-63
2023/07/30 09:35:53;;;;;;;1.05;0.95;;;24.70;64.00;;;;;;4942227;28;20027;-63
2023/07/30 09:38:20;;;;;;;1.30;0.90;;;24.70;64.50;;;;;;4940459;28;20028;-62
2023/07/30 09:40:49;;;;;;;4.18;1.00;;;24.80;62.60;;;;;;4938551;28;20096;-63
2023/07/30 09:43:15;;;;;;;1.00;0.90;;;24.80;62.30;;;;;;4940533;28;20039;-63
2023/07/30 09:45:40;;;;;;;3.42;1.00;;;24.80;62.90;;;;;;4940682;28;20091;-63
2023/07/30 09:48:06;;;;;;;1.00;1.00;;;24.80;62.70;;;;;;4940911;28;20027;-64
2023/07/30 09:50:34;;;;;;;0.82;0.82;;;24.80;63.30;;;;;;4939969;28;20043;-62
2023/07/30 09:53:01;;;;;;;1.02;0.75;;;24.90;63.10;;;;;;4939467;28;20050;-63
2023/07/30 09:55:27;;;;;;;0.85;0.85;;;24.90;62.60;;;;;;4941765;28;20046;-63
2023/07/30 09:57:53;;;;;;;1.23;0.90;;;25.00;62.90;;;;;;4936633;28;20031;-62
2023/07/30 10:00:19;;;;;;;0.80;0.80;;;25.00;62.90;;;;;;4938779;28;20035;-63
2023/07/30 10:02:49;;;;;;;1.10;0.98;;;25.10;62.60;;;;;;4940501;28;20090;-62
2023/07/30 10:05:18;;;;;;;0.98;0.90;;;25.20;61.80;;;;;;4942571;28;20043;-63
2023/07/30 10:08:00;;;;;;;1.75;0.80;;;25.20;62.00;;;;;;4941486;28;20063;-63
2023/07/30 10:10:28;;;;;;;1.10;1.00;;;25.20;62.60;;;;;;4943026;28;20039;-62
2023/07/30 10:12:57;;;;;;;3.20;1.13;;;25.20;63.20;;;;;;4941474;28;20043;-61
2023/07/30 10:15:23;;;;;;;2.55;1.02;;;25.20;64.20;;;;;;4941060;28;20027;-62
2023/07/30 10:17:50;;;;;;;1.52;1.10;;;25.00;63.40;;;;;;4941051;28;20031;-63
2023/07/30 10:20:20;;;;;;;0.98;0.98;;;24.80;62.60;;;;;;4940755;28;20079;-62
2023/07/30 10:22:46;;;;;;;1.73;1.08;;;24.50;64.00;;;;;;4940952;28;20427;-62
2023/07/30 10:25:13;;;;;;;2.45;1.00;;;24.30;65.40;;;;;;4941209;28;20031;-62
2023/07/30 10:27:46;;;;;;;1.05;0.90;;;24.20;67.20;;;;;;4940497;28;20036;-63
2023/07/30 10:30:16;;;;;;;1.15;1.05;;;24.10;68.30;;;;;;4941060;28;20403;-60
2023/07/30 10:32:59;;;;;;;1.35;1.10;;;24.10;67.60;;;;;;4939665;28;20039;-61
2023/07/30 10:35:45;;;;;;;1.00;1.00;;;24.10;67.00;;;;;;4941363;28;20039;-61
2023/07/30 10:38:20;;;;;;;1.20;1.10;;;24.10;65.90;;;;;;4940203;28;20059;-63
2023/07/30 10:41:16;;;;;;;1.30;1.00;;;24.00;66.30;;;;;;4939312;28;20431;-63
2023/07/30 10:43:45;;;;;;;2.55;1.00;;;24.10;65.90;;;;;;4940928;28;20055;-63
2023/07/30 10:46:13;;;;;;;2.85;1.20;;;24.00;64.30;;;;;;4940813;28;20117;-62
2023/07/30 10:48:40;;;;;;;1.15;1.05;;;24.00;62.10;;;;;;4940367;28;20039;-62
2023/07/30 10:51:08;;;;;;;5.03;1.30;;;24.10;61.50;;;;;;4941020;28;20345;-61
2023/07/30 10:53:36;;;;;;;1.45;1.35;;;24.10;60.80;;;;;;4938903;28;20504;-63
2023/07/30 10:56:06;;;;;;;1.27;1.10;;;24.10;60.90;;;;;;4938164;28;20031;-62
2023/07/30 10:58:34;;;;;;;1.60;1.23;;;24.20;59.90;;;;;;4937718;28;20032;-63
2023/07/30 11:01:05;;;;;;;1.27;1.17;;;24.20;59.50;;;;;;4936290;28;20047;-62
2023/07/30 11:03:34;;;;;;;1.30;1.20;;;24.30;58.90;;;;;;4936023;28;20081;-62
2023/07/30 11:06:01;;;;;;;1.30;1.20;;;24.40;58.80;;;;;;4937831;28;21934;-63
2023/07/30 11:08:41;;;;;;;1.20;1.10;;;24.50;57.30;;;;;;4940094;28;20062;-63
2023/07/30 11:11:08;;;;;;;1.17;1.08;;;24.60;54.80;;;;;;4939462;28;20039;-63
2023/07/30 11:13:40;;;;;;;1.45;1.35;;;24.70;54.30;;;;;;4939178;28;20594;-63
2023/07/30 11:16:07;;;;;;;0.80;0.80;;;24.70;53.10;;;;;;4942916;28;20028;-64
2023/07/30 11:18:36;;;;;;;3.13;1.00;;;24.70;56.90;;;;;;4942131;28;20123;-64
2023/07/30 11:21:14;;;;;;;6.63;1.00;;;24.50;57.30;;;;;;4943364;28;20655;-64
2023/07/30 11:23:43;;;;;;;1.08;0.90;;;24.30;58.00;;;;;;4944001;28;20118;-64
2023/07/30 11:26:14;;;;;;;1.10;0.90;;;24.10;59.10;;;;;;4942924;28;20044;-63
2023/07/30 11:28:40;;;;;;;0.95;0.80;;;23.90;59.80;;;;;;4943918;28;20047;-64
2023/07/30 11:31:06;;;;;;;1.17;0.88;;;23.70;60.30;;;;;;4942231;28;20050;-64
2023/07/30 11:33:35;;;;;;;1.10;1.00;;;23.60;60.50;;;;;;4941253;28;20118;-64
2023/07/30 11:36:02;;;;;;;1.60;0.90;;;23.40;60.50;;;;;;4942918;28;20038;-64
2023/07/30 11:38:29;;;;;;;3.38;0.90;;;23.20;61.60;;;;;;4940215;28;20036;-64
2023/07/30 11:40:55;;;;;;;2.67;1.00;;;23.10;62.50;;;;;;4942201;28;20041;-63
2023/07/30 11:43:22;;;;;;;0.90;0.90;;;23.00;62.80;;;;;;4943913;28;20463;-63
2023/07/30 11:45:48;;;;;;;0.98;0.98;;;23.00;62.80;;;;;;4942041;28;20498;-64
2023/07/30 11:48:14;;;;;;;1.63;0.88;;;22.90;63.20;;;;;;4943085;28;20095;-64
2023/07/30 11:50:48;;;;;;;1.02;0.93;;;22.90;64.50;;;;;;4943068;28;20288;-63
2023/07/30 11:53:14;;;;;;;1.00;0.90;;;22.90;64.50;;;;;;4940624;28;20035;-63
2023/07/30 11:55:41;;;;;;;1.48;1.20;;;22.90;63.70;;;;;;4942420;28;20391;-62
2023/07/30 11:58:07;;;;;;;0.70;0.70;;;23.00;64.30;;;;;;4942518;28;20141;-63
2023/07/30 12:00:33;;;;;;;1.48;0.95;;;23.00;63.10;;;;;;4941584;28;20479;-62
2023/07/30 12:03:07;;;;;;;0.90;0.90;;;23.10;63.20;;;;;;4943421;28;20047;-63
2023/07/30 12:05:37;;;;;;;1.17;1.08;;;23.10;62.70;;;;;;4942859;28;20028;-63
2023/07/30 12:08:06;;;;;;;1.30;1.20;;;23.20;62.60;;;;;;4943648;28;20039;-63
2023/07/30 12:10:45;;;;;;;1.02;0.93;;;23.20;62.90;;;;;;4944494;28;20465;-63
2023/07/30 12:13:19;;;;;;;1.15;1.05;;;23.20;60.40;;;;;;4941670;28;20482;-64
2023/07/30 12:15:54;;;;;;;1.10;1.00;;;23.30;60.80;;;;;;4937923;28;20526;-63
2023/07/30 12:18:21;;;;;;;1.50;1.10;;;23.40;61.10;;;;;;4942331;28;20039;-62
2023/07/30 12:20:47;;;;;;;1.60;1.02;;;23.40;61.40;;;;;;4943266;28;20040;-64
2023/07/30 12:23:13;;;;;;;1.40;1.20;;;23.50;60.60;;;;;;4941047;28;20110;-61
2023/07/30 12:25:39;;;;;;;1.80;0.80;;;23.60;59.90;;;;;;4940175;28;20035;-61
2023/07/30 12:28:05;;;;;;;1.08;1.00;;;23.60;59.90;;;;;;4940109;28;20043;-63
2023/07/30 12:30:31;;;;;;;1.00;0.90;;;23.60;59.80;;;;;;4938359;28;20119;-63
2023/07/30 12:32:57;;;;;;;2.72;1.25;;;23.60;60.00;;;;;;4940283;28;20124;-63
2023/07/30 12:35:23;;;;;;;1.13;1.02;;;23.70;59.80;;;;;;4940645;28;20039;-63
2023/07/30 12:37:49;;;;;;;1.02;0.93;;;23.80;59.50;;;;;;4941436;28;20046;-62
2023/07/30 12:40:14;;;;;;;1.17;1.10;;;23.80;58.60;;;;;;4941097;28;20040;-63
2023/07/30 12:42:40;;;;;;;1.20;1.10;;;23.80;57.80;;;;;;4939155;28;20500;-62
2023/07/30 12:45:06;;;;;;;1.20;1.10;;;23.90;58.20;;;;;;4940365;28;20035;-64